Time,TemperatureF,DewpointF,PressureIn,WindDirection,WindDirectionDegrees,WindSpeedMPH,WindSpeedGustMPH,Humidity,HourlyPrecipIn,Conditions,Clouds,dailyrainin,SoftwareType,DateUTC
2013-12-07 00:03:00,69.0,67.0,30.16,ESE,121,0.0,0.0,92,0.00,,,0.00,weatherlink.com 1.10,2013-12-07 05:03:00,
2013-12-07 00:18:00,68.7,66.0,30.16,East,95,0.0,0.0,91,0.00,,,0.00,weatherlink.com 1.10,2013-12-07 05:18:00,
2013-12-07 00:33:00,68.5,66.0,30.16,East,96,0.0,0.0,91,0.00,,,0.00,weatherlink.com 1.10,2013-12-07 05:33:00,
2013-12-07 00:48:00,68.0,65.0,30.16,East,96,0.0,0.0,91,0.00,,,0.00,weatherlink.com 1.10,2013-12-07 05:48:00,
2013-12-07 01:03:00,67.2,65.0,30.16,East,96,0.0,0.0,92,0.00,,,0.00,weatherlink.com 1.10,2013-12-07 06:03:00,
2013-12-07 01:18:00,67.0,65.0,30.16,East,96,0.0,0.0,94,0.00,,,0.00,weatherlink.com 1.10,2013-12-07 06:18:00,
2013-12-07 01:33:00,66.6,65.0,30.16,East,96,0.0,0.0,94,0.00,,,0.00,weatherlink.com 1.10,2013-12-07 06:33:00,
2013-12-07 01:48:00,66.1,64.0,30.16,East,96,0.0,0.0,94,0.00,,,0.00,weatherlink.com 1.10,2013-12-07 06:48:00,
2013-12-07 02:03:00,65.6,64.0,30.16,East,96,0.0,0.0,94,0.00,,,0.00,weatherlink.com 1.10,2013-12-07 07:03:00,
2013-12-07 02:19:00,65.3,64.0,30.16,East,96,0.0,0.0,95,0.00,,,0.00,weatherlink.com 1.10,2013-12-07 07:19:00,
2013-12-07 02:34:00,64.7,63.0,30.16,East,96,0.0,0.0,95,0.00,,,0.00,weatherlink.com 1.10,2013-12-07 07:34:00,
2013-12-07 02:49:00,64.6,63.0,30.16,East,96,0.0,0.0,95,0.00,,,0.00,weatherlink.com 1.10,2013-12-07 07:49:00,
2013-12-07 03:04:00,64.4,63.0,30.15,East,96,0.0,0.0,95,0.00,,,0.00,weatherlink.com 1.10,2013-12-07 08:04:00,
2013-12-07 03:19:00,64.4,63.0,30.15,East,96,0.0,0.0,96,0.00,,,0.00,weatherlink.com 1.10,2013-12-07 08:19:00,
2013-12-07 03:34:00,64.1,63.0,30.15,East,96,0.0,0.0,96,0.00,,,0.00,weatherlink.com 1.10,2013-12-07 08:34:00,
2013-12-07 03:49:00,64.2,63.0,30.15,East,96,0.0,0.0,96,0.00,,,0.00,weatherlink.com 1.10,2013-12-07 08:49:00,
2013-12-07 04:04:00,64.7,64.0,30.15,East,96,0.0,0.0,96,0.00,,,0.00,weatherlink.com 1.10,2013-12-07 09:04:00,
2013-12-07 04:19:00,64.4,63.0,30.15,East,96,0.0,0.0,96,0.00,,,0.00,weatherlink.com 1.10,2013-12-07 09:19:00,
2013-12-07 04:34:00,64.1,63.0,30.16,East,96,0.0,0.0,96,0.00,,,0.00,weatherlink.com 1.10,2013-12-07 09:34:00,
2013-12-07 04:49:00,64.1,63.0,30.16,East,96,0.0,0.0,97,0.00,,,0.00,weatherlink.com 1.10,2013-12-07 09:49:00,
2013-12-07 05:04:00,64.4,64.0,30.16,East,96,0.0,0.0,97,0.00,,,0.00,weatherlink.com 1.10,2013-12-07 10:04:00,
2013-12-07 05:19:00,64.3,64.0,30.16,East,96,0.0,0.0,97,0.00,,,0.00,weatherlink.com 1.10,2013-12-07 10:19:00,
2013-12-07 05:34:00,63.7,63.0,30.16,East,96,0.0,0.0,96,0.00,,,0.00,weatherlink.com 1.10,2013-12-07 10:34:00,
2013-12-07 05:49:00,63.6,63.0,30.16,East,96,0.0,0.0,97,0.00,,,0.00,weatherlink.com 1.10,2013-12-07 10:49:00,
2013-12-07 06:04:00,63.4,63.0,30.17,East,95,0.0,0.0,97,0.00,,,0.00,weatherlink.com 1.10,2013-12-07 11:04:00,
2013-12-07 06:19:00,62.8,62.0,30.17,East,96,0.0,0.0,97,0.00,,,0.00,weatherlink.com 1.10,2013-12-07 11:19:00,
2013-12-07 06:34:00,62.8,62.0,30.18,East,96,0.0,0.0,97,0.00,,,0.00,weatherlink.com 1.10,2013-12-07 11:34:00,
2013-12-07 06:49:00,62.6,62.0,30.19,East,96,0.0,0.0,97,0.00,,,0.00,weatherlink.com 1.10,2013-12-07 11:49:00,
2013-12-07 07:04:00,61.9,61.0,30.19,East,96,0.0,0.0,97,0.00,,,0.00,weatherlink.com 1.10,2013-12-07 12:04:00,
2013-12-07 07:19:00,62.0,61.0,30.19,East,96,0.0,0.0,97,0.00,,,0.00,weatherlink.com 1.10,2013-12-07 12:19:00,
2013-12-07 07:34:00,64.5,64.0,30.19,East,96,0.0,0.0,98,0.00,,,0.00,weatherlink.com 1.10,2013-12-07 12:34:00,
2013-12-07 07:49:00,65.0,65.0,30.20,East,96,0.0,0.0,98,0.00,,,0.00,weatherlink.com 1.10,2013-12-07 12:49:00,
2013-12-07 08:04:00,66.2,65.0,30.20,East,96,0.0,0.0,97,0.00,,,0.00,weatherlink.com 1.10,2013-12-07 13:04:00,
2013-12-07 08:19:00,68.0,67.0,30.20,East,91,0.0,0.0,97,0.00,,,0.00,weatherlink.com 1.10,2013-12-07 13:19:00,
2013-12-07 08:34:00,70.1,68.0,30.20,East,88,0.0,2.0,94,0.00,,,0.00,weatherlink.com 1.10,2013-12-07 13:34:00,
2013-12-07 08:49:00,71.8,69.0,30.21,East,85,2.0,2.0,90,0.00,,,0.00,weatherlink.com 1.10,2013-12-07 13:49:00,
2013-12-07 09:04:00,73.5,70.0,30.21,ESE,104,1.0,2.0,87,0.00,,,0.00,weatherlink.com 1.10,2013-12-07 14:04:00,
2013-12-07 09:19:00,74.2,70.0,30.21,East,97,1.0,4.0,85,0.00,,,0.00,weatherlink.com 1.10,2013-12-07 14:19:00,
2013-12-07 09:34:00,75.4,70.0,30.22,East,79,3.0,4.0,82,0.00,,,0.00,weatherlink.com 1.10,2013-12-07 14:34:00,
2013-12-07 09:49:00,75.6,69.0,30.22,East,84,3.0,4.0,81,0.00,,,0.00,weatherlink.com 1.10,2013-12-07 14:49:00,
2013-12-07 10:04:00,76.5,70.0,30.22,SE,139,3.0,5.0,80,0.00,,,0.00,weatherlink.com 1.10,2013-12-07 15:04:00,
2013-12-07 10:19:00,77.6,70.0,30.22,SE,134,2.0,5.0,77,0.00,,,0.00,weatherlink.com 1.10,2013-12-07 15:19:00,
2013-12-07 10:34:00,78.5,70.0,30.22,ENE,60,5.0,6.0,74,0.00,,,0.00,weatherlink.com 1.10,2013-12-07 15:34:00,
2013-12-07 10:49:00,78.8,69.0,30.21,SSW,207,1.0,4.0,73,0.00,,,0.00,weatherlink.com 1.10,2013-12-07 15:49:00,
2013-12-07 11:04:00,79.5,68.0,30.21,East,90,3.0,4.0,69,0.00,,,0.00,weatherlink.com 1.10,2013-12-07 16:04:00,
2013-12-07 11:19:00,80.2,68.0,30.21,ESE,112,3.0,5.0,67,0.00,,,0.00,weatherlink.com 1.10,2013-12-07 16:19:00,
2013-12-07 11:34:00,80.5,68.0,30.20,SSW,193,1.0,5.0,66,0.00,,,0.00,weatherlink.com 1.10,2013-12-07 16:34:00,
2013-12-07 11:49:00,81.0,69.0,30.20,ENE,69,1.0,5.0,66,0.00,,,0.00,weatherlink.com 1.10,2013-12-07 16:49:00,
2013-12-07 12:04:00,81.3,67.0,30.19,ENE,75,3.0,5.0,62,0.00,,,0.00,weatherlink.com 1.10,2013-12-07 17:04:00,
2013-12-07 12:19:00,81.6,67.0,30.19,South,169,2.0,6.0,61,0.00,,,0.00,weatherlink.com 1.10,2013-12-07 17:19:00,
2013-12-07 12:34:00,82.8,67.0,30.18,SSE,163,2.0,5.0,60,0.00,,,0.00,weatherlink.com 1.10,2013-12-07 17:34:00,
2013-12-07 12:49:00,83.0,68.0,30.17,West,279,0.0,5.0,60,0.00,,,0.00,weatherlink.com 1.10,2013-12-07 17:49:00,
2013-12-07 13:04:00,83.3,67.0,30.16,ESE,120,0.0,4.0,58,0.00,,,0.00,weatherlink.com 1.10,2013-12-07 18:04:00,
2013-12-07 13:19:00,83.5,67.0,30.15,SSW,193,3.0,5.0,57,0.00,,,0.00,weatherlink.com 1.10,2013-12-07 18:19:00,
2013-12-07 13:34:00,83.9,67.0,30.15,ESE,103,2.0,4.0,58,0.00,,,0.00,weatherlink.com 1.10,2013-12-07 18:34:00,
2013-12-07 13:49:00,83.6,67.0,30.14,North,352,1.0,3.0,57,0.00,,,0.00,weatherlink.com 1.10,2013-12-07 18:49:00,
2013-12-07 14:05:00,84.5,67.0,30.13,ENE,69,3.0,4.0,56,0.00,,,0.00,weatherlink.com 1.10,2013-12-07 19:05:00,
2013-12-07 14:20:00,83.9,66.0,30.13,NE,50,4.0,6.0,56,0.00,,,0.00,weatherlink.com 1.10,2013-12-07 19:20:00,
2013-12-07 14:35:00,84.3,67.0,30.12,ESE,109,0.0,5.0,56,0.00,,,0.00,weatherlink.com 1.10,2013-12-07 19:35:00,
2013-12-07 14:50:00,84.3,66.0,30.12,ENE,60,1.0,2.0,55,0.00,,,0.00,weatherlink.com 1.10,2013-12-07 19:50:00,
2013-12-07 15:05:00,83.8,66.0,30.12,ENE,62,1.0,4.0,56,0.00,,,0.00,weatherlink.com 1.10,2013-12-07 20:05:00,
2013-12-07 15:21:00,83.8,68.0,30.12,WNW,298,1.0,6.0,60,0.00,,,0.00,weatherlink.com 1.10,2013-12-07 20:21:00,
2013-12-07 15:35:00,83.4,68.0,30.12,NW,319,2.0,6.0,61,0.00,,,0.00,weatherlink.com 1.10,2013-12-07 20:35:00,
2013-12-07 15:50:00,82.5,68.0,30.12,NW,323,3.0,6.0,62,0.00,,,0.00,weatherlink.com 1.10,2013-12-07 20:50:00,
2013-12-07 16:05:00,82.3,68.0,30.12,NW,314,4.0,6.0,62,0.00,,,0.00,weatherlink.com 1.10,2013-12-07 21:05:00,
2013-12-07 16:20:00,82.6,68.0,30.12,NW,307,2.0,6.0,61,0.00,,,0.00,weatherlink.com 1.10,2013-12-07 21:20:00,
2013-12-07 16:35:00,81.1,67.0,30.13,NW,314,0.0,6.0,63,0.00,,,0.00,weatherlink.com 1.10,2013-12-07 21:35:00,
2013-12-07 16:50:00,81.6,67.0,30.13,West,270,2.0,5.0,61,0.00,,,0.00,weatherlink.com 1.10,2013-12-07 21:50:00,
2013-12-07 17:05:00,80.9,67.0,30.12,WNW,294,1.0,4.0,63,0.00,,,0.00,weatherlink.com 1.10,2013-12-07 22:05:00,
2013-12-07 17:20:00,80.4,67.0,30.13,North,357,1.0,3.0,64,0.00,,,0.00,weatherlink.com 1.10,2013-12-07 22:20:00,
2013-12-07 17:35:00,79.5,67.0,30.13,WNW,295,0.0,2.0,65,0.00,,,0.00,weatherlink.com 1.10,2013-12-07 22:35:00,
2013-12-07 17:50:00,78.7,68.0,30.13,WNW,297,0.0,1.0,69,0.00,,,0.00,weatherlink.com 1.10,2013-12-07 22:50:00,
2013-12-07 18:05:00,78.3,69.0,30.13,ENE,77,0.0,4.0,74,0.00,,,0.00,weatherlink.com 1.10,2013-12-07 23:05:00,
2013-12-07 18:20:00,77.6,70.0,30.14,ENE,64,0.0,0.0,76,0.00,,,0.00,weatherlink.com 1.10,2013-12-07 23:20:00,
2013-12-07 18:35:00,76.6,69.0,30.14,ENE,65,0.0,0.0,77,0.00,,,0.00,weatherlink.com 1.10,2013-12-07 23:35:00,
2013-12-07 18:50:00,76.1,69.0,30.14,NE,56,2.0,3.0,79,0.00,,,0.00,weatherlink.com 1.10,2013-12-07 23:50:00,
2013-12-07 19:05:00,76.1,69.0,30.15,East,94,1.0,4.0,78,0.00,,,0.00,weatherlink.com 1.10,2013-12-08 00:05:00,
2013-12-07 19:20:00,75.5,68.0,30.15,East,93,3.0,4.0,78,0.00,,,0.00,weatherlink.com 1.10,2013-12-08 00:20:00,
2013-12-07 19:35:00,75.3,68.0,30.15,East,95,2.0,6.0,78,0.00,,,0.00,weatherlink.com 1.10,2013-12-08 00:35:00,
2013-12-07 19:50:00,74.7,68.0,30.16,ENE,67,2.0,4.0,79,0.00,,,0.00,weatherlink.com 1.10,2013-12-08 00:50:00,
2013-12-07 20:05:00,74.2,67.0,30.16,East,85,2.0,3.0,79,0.00,,,0.00,weatherlink.com 1.10,2013-12-08 01:05:00,
2013-12-07 20:20:00,73.9,67.0,30.16,East,79,1.0,2.0,79,0.00,,,0.00,weatherlink.com 1.10,2013-12-08 01:20:00,
2013-12-07 20:35:00,73.5,67.0,30.16,East,85,2.0,3.0,80,0.00,,,0.00,weatherlink.com 1.10,2013-12-08 01:35:00,
2013-12-07 20:50:00,73.1,67.0,30.17,East,87,2.0,4.0,81,0.00,,,0.00,weatherlink.com 1.10,2013-12-08 01:50:00,
2013-12-07 21:05:00,72.9,67.0,30.17,ENE,67,4.0,5.0,82,0.00,,,0.00,weatherlink.com 1.10,2013-12-08 02:05:00,
2013-12-07 21:20:00,72.7,67.0,30.17,ESE,103,3.0,5.0,82,0.00,,,0.00,weatherlink.com 1.10,2013-12-08 02:20:00,
2013-12-07 21:35:00,72.3,67.0,30.18,East,96,2.0,4.0,83,0.00,,,0.00,weatherlink.com 1.10,2013-12-08 02:35:00,
2013-12-07 21:50:00,72.0,67.0,30.18,East,89,2.0,5.0,84,0.00,,,0.00,weatherlink.com 1.10,2013-12-08 02:50:00,
2013-12-07 22:06:00,71.6,67.0,30.18,ESE,108,2.0,4.0,85,0.00,,,0.00,weatherlink.com 1.10,2013-12-08 03:06:00,
2013-12-07 22:21:00,71.2,67.0,30.18,East,84,1.0,3.0,86,0.00,,,0.00,weatherlink.com 1.10,2013-12-08 03:21:00,
2013-12-07 22:36:00,70.9,67.0,30.18,ESE,103,1.0,4.0,87,0.00,,,0.00,weatherlink.com 1.10,2013-12-08 03:36:00,
2013-12-07 22:51:00,70.7,67.0,30.18,ENE,69,1.0,4.0,88,0.00,,,0.00,weatherlink.com 1.10,2013-12-08 03:51:00,
2013-12-07 23:06:00,70.3,67.0,30.18,East,94,1.0,2.0,89,0.00,,,0.00,weatherlink.com 1.10,2013-12-08 04:06:00,
2013-12-07 23:21:00,69.9,67.0,30.18,East,82,0.0,0.0,89,0.00,,,0.00,weatherlink.com 1.10,2013-12-08 04:21:00,
2013-12-07 23:36:00,69.5,67.0,30.18,ENE,78,0.0,0.0,90,0.00,,,0.00,weatherlink.com 1.10,2013-12-08 04:36:00,
2013-12-07 23:51:00,69.0,66.0,30.18,ENE,78,0.0,0.0,91,0.00,,,0.00,weatherlink.com 1.10,2013-12-08 04:51:00,